Terminal Aerodrome Forecast
Issued by NWS Caribou, ME

Home | Current Version | Previous Version | Text Only | Print | Product List | Glossary On
Versions: 1 2 3 4 5 6 7 8 9 10 11 12 13 14 15 16 17 18 19 20 21
000
FTUS41 KCAR 210500
TAFBGR
TAF
KBGR 210536Z 2106/2206 00000KT P6SM OVC090
     FM211700 11004KT 3SM -RA OVC035
     FM212000 10006KT 2SM -RA OVC025
     FM220100 06010KT 2SM -RA OVC025=

USA.gov is the U.S. government's official web portal to all federal, state and local government web resources and services.